Terminal Aerodrome Forecast
Issued by NWS San Angelo, TX

Home | Current Version | Previous Version | Text Only | Print | Product List | Glossary On
Versions: 1 2 3 4 5 6 7 8 9 10 11 12 13 14
000
FTUS44 KSJT 230520
TAFABI
TAF
KABI 230520Z 2306/2406 35009KT P6SM VCSH SCT040 BKN100
     FM231000 32006KT P6SM OVC035
     FM231800 02006KT P6SM VCSH BKN040
     FM232300 07007KT P6SM BKN050=

USA.gov is the U.S. government's official web portal to all federal, state and local government web resources and services.